sensor_id;sensor_type;location;lat;lon;timestamp;temperature;humidity
55213;DHT22;41083;52.932;6.674;2022-12-05T00:01:32;4.40;99.90
55213;DHT22;41083;52.932;6.674;2022-12-05T00:04:06;4.40;99.90
55213;DHT22;41083;52.932;6.674;2022-12-05T00:06:33;4.40;99.90
55213;DHT22;41083;52.932;6.674;2022-12-05T00:08:59;4.40;99.90
55213;DHT22;41083;52.932;6.674;2022-12-05T00:11:27;4.40;99.90
55213;DHT22;41083;52.932;6.674;2022-12-05T00:13:54;4.40;99.90
55213;DHT22;41083;52.932;6.674;2022-12-05T00:16:23;4.40;99.90
55213;DHT22;41083;52.932;6.674;2022-12-05T00:18:49;4.40;99.90
55213;DHT22;41083;52.932;6.674;2022-12-05T00:21:19;4.40;99.90
55213;DHT22;41083;52.932;6.674;2022-12-05T00:23:45;4.40;99.90
55213;DHT22;41083;52.932;6.674;2022-12-05T00:26:11;4.40;99.90
55213;DHT22;41083;52.932;6.674;2022-12-05T00:28:37;4.40;99.90
55213;DHT22;41083;52.932;6.674;2022-12-05T00:31:13;4.40;99.90
55213;DHT22;41083;52.932;6.674;2022-12-05T00:33:39;4.40;99.90
55213;DHT22;41083;52.932;6.674;2022-12-05T00:36:07;4.40;99.90
55213;DHT22;41083;52.932;6.674;2022-12-05T00:38:33;4.40;99.90
55213;DHT22;41083;52.932;6.674;2022-12-05T00:41:07;4.40;99.90
55213;DHT22;41083;52.932;6.674;2022-12-05T00:43:33;4.40;99.90
55213;DHT22;41083;52.932;6.674;2022-12-05T00:46:08;4.40;99.90
55213;DHT22;41083;52.932;6.674;2022-12-05T00:48:35;4.40;99.90
55213;DHT22;41083;52.932;6.674;2022-12-05T00:51:12;4.40;99.90
55213;DHT22;41083;52.932;6.674;2022-12-05T00:53:39;4.50;99.90
55213;DHT22;41083;52.932;6.674;2022-12-05T00:56:12;4.50;99.90
55213;DHT22;41083;52.932;6.674;2022-12-05T00:58:39;4.50;99.90
55213;DHT22;41083;52.932;6.674;2022-12-05T01:01:46;4.50;99.90
55213;DHT22;41083;52.932;6.674;2022-12-05T01:04:09;4.50;99.90
55213;DHT22;41083;52.932;6.674;2022-12-05T01:06:35;4.50;99.90
55213;DHT22;41083;52.932;6.674;2022-12-05T01:09:02;4.50;99.90
55213;DHT22;41083;52.932;6.674;2022-12-05T01:11:28;4.50;99.90
55213;DHT22;41083;52.932;6.674;2022-12-05T01:13:55;4.50;99.90
55213;DHT22;41083;52.932;6.674;2022-12-05T01:16:25;4.50;99.90
55213;DHT22;41083;52.932;6.674;2022-12-05T01:18:51;4.50;99.90
55213;DHT22;41083;52.932;6.674;2022-12-05T01:21:17;4.50;99.90
55213;DHT22;41083;52.932;6.674;2022-12-05T01:23:43;4.60;99.90
55213;DHT22;41083;52.932;6.674;2022-12-05T01:26:10;4.60;99.90
55213;DHT22;41083;52.932;6.674;2022-12-05T01:28:38;4.60;99.90
55213;DHT22;41083;52.932;6.674;2022-12-05T01:31:06;4.60;99.90
55213;DHT22;41083;52.932;6.674;2022-12-05T01:33:33;4.50;99.90
55213;DHT22;41083;52.932;6.674;2022-12-05T01:35:59;4.60;99.90
55213;DHT22;41083;52.932;6.674;2022-12-05T01:38:25;4.60;99.90
55213;DHT22;41083;52.932;6.674;2022-12-05T01:41:04;4.60;99.90
55213;DHT22;41083;52.932;6.674;2022-12-05T01:43:31;4.60;99.90
55213;DHT22;41083;52.932;6.674;2022-12-05T01:45:57;4.70;99.90
55213;DHT22;41083;52.932;6.674;2022-12-05T01:48:34;4.70;99.90
55213;DHT22;41083;52.932;6.674;2022-12-05T01:51:00;4.70;99.90
55213;DHT22;41083;52.932;6.674;2022-12-05T01:53:27;4.70;99.90
55213;DHT22;41083;52.932;6.674;2022-12-05T01:55:54;4.70;99.90
55213;DHT22;41083;52.932;6.674;2022-12-05T01:58:20;4.70;99.90
55213;DHT22;41083;52.932;6.674;2022-12-05T02:00:49;4.70;99.90
55213;DHT22;41083;52.932;6.674;2022-12-05T02:03:17;4.70;99.90
55213;DHT22;41083;52.932;6.674;2022-12-05T02:05:47;4.70;99.90
55213;DHT22;41083;52.932;6.674;2022-12-05T02:08:14;4.70;99.90
55213;DHT22;41083;52.932;6.674;2022-12-05T02:10:52;4.70;99.90
55213;DHT22;41083;52.932;6.674;2022-12-05T02:13:42;4.70;99.90
55213;DHT22;41083;52.932;6.674;2022-12-05T02:30:11;4.80;99.90
55213;DHT22;41083;52.932;6.674;2022-12-05T02:32:49;4.80;99.90
55213;DHT22;41083;52.932;6.674;2022-12-05T02:38:27;4.80;99.90
55213;DHT22;41083;52.932;6.674;2022-12-05T02:43:44;4.80;99.90
55213;DHT22;41083;52.932;6.674;2022-12-05T02:46:16;4.80;99.90
55213;DHT22;41083;52.932;6.674;2022-12-05T02:48:44;4.80;99.90
55213;DHT22;41083;52.932;6.674;2022-12-05T02:51:13;4.80;99.90
55213;DHT22;41083;52.932;6.674;2022-12-05T02:53:42;4.80;99.90
55213;DHT22;41083;52.932;6.674;2022-12-05T02:56:09;4.80;99.90
55213;DHT22;41083;52.932;6.674;2022-12-05T02:58:43;4.80;99.90
55213;DHT22;41083;52.932;6.674;2022-12-05T03:01:10;4.90;99.90
55213;DHT22;41083;52.932;6.674;2022-12-05T03:03:36;4.90;99.90
55213;DHT22;41083;52.932;6.674;2022-12-05T03:08:48;4.90;99.90
55213;DHT22;41083;52.932;6.674;2022-12-05T03:11:16;4.90;99.90
55213;DHT22;41083;52.932;6.674;2022-12-05T03:13:50;4.90;99.90
55213;DHT22;41083;52.932;6.674;2022-12-05T03:16:39;4.90;99.90
55213;DHT22;41083;52.932;6.674;2022-12-05T03:19:14;4.90;99.90
55213;DHT22;41083;52.932;6.674;2022-12-05T03:21:48;4.90;99.90
55213;DHT22;41083;52.932;6.674;2022-12-05T03:24:15;4.90;99.90
55213;DHT22;41083;52.932;6.674;2022-12-05T03:29:24;4.90;99.90
55213;DHT22;41083;52.932;6.674;2022-12-05T03:31:57;4.90;99.90
55213;DHT22;41083;52.932;6.674;2022-12-05T03:34:34;4.90;99.90
55213;DHT22;41083;52.932;6.674;2022-12-05T03:37:05;4.90;99.90
55213;DHT22;41083;52.932;6.674;2022-12-05T03:39:32;4.90;99.90
55213;DHT22;41083;52.932;6.674;2022-12-05T03:42:09;4.90;99.90
55213;DHT22;41083;52.932;6.674;2022-12-05T03:44:43;4.90;99.90
55213;DHT22;41083;52.932;6.674;2022-12-05T03:47:24;4.90;99.90
55213;DHT22;41083;52.932;6.674;2022-12-05T03:49:54;4.90;99.90
55213;DHT22;41083;52.932;6.674;2022-12-05T03:52:36;4.90;99.90
55213;DHT22;41083;52.932;6.674;2022-12-05T03:55:06;4.90;99.90
55213;DHT22;41083;52.932;6.674;2022-12-05T03:57:44;4.90;99.90
55213;DHT22;41083;52.932;6.674;2022-12-05T04:00:16;4.90;99.90
55213;DHT22;41083;52.932;6.674;2022-12-05T04:08:17;4.90;99.90
55213;DHT22;41083;52.932;6.674;2022-12-05T04:10:45;4.90;99.90
55213;DHT22;41083;52.932;6.674;2022-12-05T04:13:45;4.90;99.90
55213;DHT22;41083;52.932;6.674;2022-12-05T04:16:25;5.00;99.90
55213;DHT22;41083;52.932;6.674;2022-12-05T04:19:38;5.00;99.90
55213;DHT22;41083;52.932;6.674;2022-12-05T04:22:23;5.00;99.90
55213;DHT22;41083;52.932;6.674;2022-12-05T04:24:50;5.00;99.90
55213;DHT22;41083;52.932;6.674;2022-12-05T04:27:40;5.00;99.90
55213;DHT22;41083;52.932;6.674;2022-12-05T04:30:12;5.00;99.90
55213;DHT22;41083;52.932;6.674;2022-12-05T04:32:51;5.00;99.90
55213;DHT22;41083;52.932;6.674;2022-12-05T04:35:24;5.00;99.90
55213;DHT22;41083;52.932;6.674;2022-12-05T04:37:54;5.00;99.90
55213;DHT22;41083;52.932;6.674;2022-12-05T04:40:53;5.00;99.90
55213;DHT22;41083;52.932;6.674;2022-12-05T04:43:22;5.00;99.90
55213;DHT22;41083;52.932;6.674;2022-12-05T04:45:50;5.00;99.90
55213;DHT22;41083;52.932;6.674;2022-12-05T04:48:16;5.00;99.90
55213;DHT22;41083;52.932;6.674;2022-12-05T04:50:45;5.00;99.90
55213;DHT22;41083;52.932;6.674;2022-12-05T04:53:13;5.00;99.90
55213;DHT22;41083;52.932;6.674;2022-12-05T04:55:43;5.00;99.90
55213;DHT22;41083;52.932;6.674;2022-12-05T04:58:18;5.00;99.90
55213;DHT22;41083;52.932;6.674;2022-12-05T05:04:13;5.00;99.90
55213;DHT22;41083;52.932;6.674;2022-12-05T05:06:19;5.00;99.90
55213;DHT22;41083;52.932;6.674;2022-12-05T05:08:50;5.10;99.90
55213;DHT22;41083;52.932;6.674;2022-12-05T05:11:22;5.00;99.90
55213;DHT22;41083;52.932;6.674;2022-12-05T05:13:48;5.00;99.90
55213;DHT22;41083;52.932;6.674;2022-12-05T05:16:21;5.00;99.90
55213;DHT22;41083;52.932;6.674;2022-12-05T05:18:47;5.00;99.90
55213;DHT22;41083;52.932;6.674;2022-12-05T05:21:16;5.00;99.90
55213;DHT22;41083;52.932;6.674;2022-12-05T05:23:43;5.10;99.90
55213;DHT22;41083;52.932;6.674;2022-12-05T05:26:08;5.10;99.90
55213;DHT22;41083;52.932;6.674;2022-12-05T05:28:34;5.10;99.90
55213;DHT22;41083;52.932;6.674;2022-12-05T05:31:04;5.10;99.90
55213;DHT22;41083;52.932;6.674;2022-12-05T05:33:30;5.10;99.90
55213;DHT22;41083;52.932;6.674;2022-12-05T05:35:56;5.10;99.90
55213;DHT22;41083;52.932;6.674;2022-12-05T05:38:21;5.10;99.90
55213;DHT22;41083;52.932;6.674;2022-12-05T05:40:47;5.10;99.90
55213;DHT22;41083;52.932;6.674;2022-12-05T05:43:12;5.10;99.90
55213;DHT22;41083;52.932;6.674;2022-12-05T05:45:38;5.10;99.90
55213;DHT22;41083;52.932;6.674;2022-12-05T05:48:04;5.10;99.90
55213;DHT22;41083;52.932;6.674;2022-12-05T05:50:30;5.10;99.90
55213;DHT22;41083;52.932;6.674;2022-12-05T05:52:55;5.10;99.90
55213;DHT22;41083;52.932;6.674;2022-12-05T05:55:21;5.10;99.90
55213;DHT22;41083;52.932;6.674;2022-12-05T05:57:46;5.10;99.90
55213;DHT22;41083;52.932;6.674;2022-12-05T06:00:12;5.10;99.90
55213;DHT22;41083;52.932;6.674;2022-12-05T06:02:38;5.10;99.90
55213;DHT22;41083;52.932;6.674;2022-12-05T06:05:04;5.10;99.90
55213;DHT22;41083;52.932;6.674;2022-12-05T06:07:30;5.20;99.90
55213;DHT22;41083;52.932;6.674;2022-12-05T06:09:56;5.10;99.90
55213;DHT22;41083;52.932;6.674;2022-12-05T06:12:22;5.20;99.90
55213;DHT22;41083;52.932;6.674;2022-12-05T06:14:48;5.10;99.90
55213;DHT22;41083;52.932;6.674;2022-12-05T06:17:14;5.10;99.90
55213;DHT22;41083;52.932;6.674;2022-12-05T06:19:39;5.10;99.90
55213;DHT22;41083;52.932;6.674;2022-12-05T06:22:05;5.10;99.90
55213;DHT22;41083;52.932;6.674;2022-12-05T06:24:30;5.20;99.90
55213;DHT22;41083;52.932;6.674;2022-12-05T06:26:56;5.20;99.90
55213;DHT22;41083;52.932;6.674;2022-12-05T06:29:22;5.20;99.90
55213;DHT22;41083;52.932;6.674;2022-12-05T06:31:47;5.20;99.90
55213;DHT22;41083;52.932;6.674;2022-12-05T06:34:13;5.20;99.90
55213;DHT22;41083;52.932;6.674;2022-12-05T06:36:39;5.20;99.90
55213;DHT22;41083;52.932;6.674;2022-12-05T06:39:05;5.20;99.90
55213;DHT22;41083;52.932;6.674;2022-12-05T06:41:30;5.20;99.90
55213;DHT22;41083;52.932;6.674;2022-12-05T06:43:57;5.20;99.90
55213;DHT22;41083;52.932;6.674;2022-12-05T06:46:23;5.20;99.90
55213;DHT22;41083;52.932;6.674;2022-12-05T06:48:54;5.20;99.90
55213;DHT22;41083;52.932;6.674;2022-12-05T06:51:20;5.20;99.90
55213;DHT22;41083;52.932;6.674;2022-12-05T06:53:46;5.20;99.90
55213;DHT22;41083;52.932;6.674;2022-12-05T06:56:13;5.20;99.90
55213;DHT22;41083;52.932;6.674;2022-12-05T06:58:41;5.20;99.90
55213;DHT22;41083;52.932;6.674;2022-12-05T07:01:14;5.20;99.90
55213;DHT22;41083;52.932;6.674;2022-12-05T07:03:59;5.20;99.90
55213;DHT22;41083;52.932;6.674;2022-12-05T07:06:25;5.20;99.90
55213;DHT22;41083;52.932;6.674;2022-12-05T07:08:51;5.20;99.90
55213;DHT22;41083;52.932;6.674;2022-12-05T07:11:17;5.20;99.90
55213;DHT22;41083;52.932;6.674;2022-12-05T07:13:42;5.20;99.90
55213;DHT22;41083;52.932;6.674;2022-12-05T07:16:08;5.20;99.90
55213;DHT22;41083;52.932;6.674;2022-12-05T07:18:35;5.20;99.90
55213;DHT22;41083;52.932;6.674;2022-12-05T07:21:03;5.20;99.90
55213;DHT22;41083;52.932;6.674;2022-12-05T07:23:29;5.20;99.90
55213;DHT22;41083;52.932;6.674;2022-12-05T07:25:55;5.20;99.90
55213;DHT22;41083;52.932;6.674;2022-12-05T07:28:22;5.20;99.90
55213;DHT22;41083;52.932;6.674;2022-12-05T07:30:48;5.20;99.90
55213;DHT22;41083;52.932;6.674;2022-12-05T07:33:14;5.20;99.90
55213;DHT22;41083;52.932;6.674;2022-12-05T07:35:40;5.20;99.90
55213;DHT22;41083;52.932;6.674;2022-12-05T07:38:05;5.20;99.90
55213;DHT22;41083;52.932;6.674;2022-12-05T07:40:31;5.30;99.90
55213;DHT22;41083;52.932;6.674;2022-12-05T07:42:56;5.30;99.90
55213;DHT22;41083;52.932;6.674;2022-12-05T07:45:22;5.30;99.90
55213;DHT22;41083;52.932;6.674;2022-12-05T07:47:48;5.30;99.90
55213;DHT22;41083;52.932;6.674;2022-12-05T07:50:13;5.30;99.90
55213;DHT22;41083;52.932;6.674;2022-12-05T07:52:39;5.20;99.90
55213;DHT22;41083;52.932;6.674;2022-12-05T07:55:06;5.30;99.90
55213;DHT22;41083;52.932;6.674;2022-12-05T07:57:32;5.30;99.90
55213;DHT22;41083;52.932;6.674;2022-12-05T07:59:57;5.30;99.90
55213;DHT22;41083;52.932;6.674;2022-12-05T08:02:23;5.30;99.90
55213;DHT22;41083;52.932;6.674;2022-12-05T08:04:48;5.30;99.90
55213;DHT22;41083;52.932;6.674;2022-12-05T08:07:14;5.20;99.90
55213;DHT22;41083;52.932;6.674;2022-12-05T08:09:40;5.30;99.90
55213;DHT22;41083;52.932;6.674;2022-12-05T08:12:06;5.30;99.90
55213;DHT22;41083;52.932;6.674;2022-12-05T08:14:31;5.30;99.90
55213;DHT22;41083;52.932;6.674;2022-12-05T08:16:57;5.30;99.90
55213;DHT22;41083;52.932;6.674;2022-12-05T08:19:23;5.30;99.90
55213;DHT22;41083;52.932;6.674;2022-12-05T08:21:48;5.30;99.90
55213;DHT22;41083;52.932;6.674;2022-12-05T08:24:14;5.30;99.90
55213;DHT22;41083;52.932;6.674;2022-12-05T08:26:39;5.20;99.90
55213;DHT22;41083;52.932;6.674;2022-12-05T08:29:11;5.20;99.90
55213;DHT22;41083;52.932;6.674;2022-12-05T08:31:45;5.30;99.90
55213;DHT22;41083;52.932;6.674;2022-12-05T08:34:15;5.20;99.90
55213;DHT22;41083;52.932;6.674;2022-12-05T08:36:42;5.20;99.90
55213;DHT22;41083;52.932;6.674;2022-12-05T08:39:10;5.30;99.90
55213;DHT22;41083;52.932;6.674;2022-12-05T08:41:38;5.30;99.90
55213;DHT22;41083;52.932;6.674;2022-12-05T08:44:05;5.20;99.90
55213;DHT22;41083;52.932;6.674;2022-12-05T08:46:34;5.30;99.90
55213;DHT22;41083;52.932;6.674;2022-12-05T08:49:00;5.30;99.90
55213;DHT22;41083;52.932;6.674;2022-12-05T08:51:25;5.30;99.90
55213;DHT22;41083;52.932;6.674;2022-12-05T08:53:51;5.20;99.90
55213;DHT22;41083;52.932;6.674;2022-12-05T08:56:17;5.20;99.90
55213;DHT22;41083;52.932;6.674;2022-12-05T08:58:42;5.20;99.90
55213;DHT22;41083;52.932;6.674;2022-12-05T09:01:11;5.30;99.90
55213;DHT22;41083;52.932;6.674;2022-12-05T09:03:38;5.20;99.90
55213;DHT22;41083;52.932;6.674;2022-12-05T09:08:41;5.20;99.90
55213;DHT22;41083;52.932;6.674;2022-12-05T09:11:18;5.30;99.90
55213;DHT22;41083;52.932;6.674;2022-12-05T09:13:46;5.30;99.90
55213;DHT22;41083;52.932;6.674;2022-12-05T09:16:24;5.30;99.90
55213;DHT22;41083;52.932;6.674;2022-12-05T09:18:51;5.20;99.90
55213;DHT22;41083;52.932;6.674;2022-12-05T09:21:19;5.30;99.90
55213;DHT22;41083;52.932;6.674;2022-12-05T09:23:46;5.20;99.90
55213;DHT22;41083;52.932;6.674;2022-12-05T09:26:14;5.30;99.90
55213;DHT22;41083;52.932;6.674;2022-12-05T09:28:41;5.30;99.90
55213;DHT22;41083;52.932;6.674;2022-12-05T09:31:10;5.20;99.90
55213;DHT22;41083;52.932;6.674;2022-12-05T09:33:37;5.30;99.90
55213;DHT22;41083;52.932;6.674;2022-12-05T09:36:11;5.30;99.90
55213;DHT22;41083;52.932;6.674;2022-12-05T09:38:38;5.20;99.90
55213;DHT22;41083;52.932;6.674;2022-12-05T09:44:40;5.20;99.90
55213;DHT22;41083;52.932;6.674;2022-12-05T09:47:16;5.20;99.90
55213;DHT22;41083;52.932;6.674;2022-12-05T09:52:57;5.30;99.90
55213;DHT22;41083;52.932;6.674;2022-12-05T09:55:24;5.30;99.90
55213;DHT22;41083;52.932;6.674;2022-12-05T09:57:56;5.20;99.90
55213;DHT22;41083;52.932;6.674;2022-12-05T10:00:24;5.30;99.90
55213;DHT22;41083;52.932;6.674;2022-12-05T10:03:10;5.30;99.90
55213;DHT22;41083;52.932;6.674;2022-12-05T10:05:46;5.20;99.90
55213;DHT22;41083;52.932;6.674;2022-12-05T10:11:42;5.30;99.90
55213;DHT22;41083;52.932;6.674;2022-12-05T10:15:22;5.20;99.90
55213;DHT22;41083;52.932;6.674;2022-12-05T10:17:33;5.20;99.90
55213;DHT22;41083;52.932;6.674;2022-12-05T10:20:03;5.30;99.90
55213;DHT22;41083;52.932;6.674;2022-12-05T10:25:05;5.20;99.90
55213;DHT22;41083;52.932;6.674;2022-12-05T10:27:41;5.20;99.90
55213;DHT22;41083;52.932;6.674;2022-12-05T10:30:15;5.20;99.90
55213;DHT22;41083;52.932;6.674;2022-12-05T10:33:02;5.20;99.90
55213;DHT22;41083;52.932;6.674;2022-12-05T10:35:39;5.20;99.90
55213;DHT22;41083;52.932;6.674;2022-12-05T10:38:12;5.20;99.90
55213;DHT22;41083;52.932;6.674;2022-12-05T10:40:43;5.20;99.90
55213;DHT22;41083;52.932;6.674;2022-12-05T10:43:13;5.20;99.90
55213;DHT22;41083;52.932;6.674;2022-12-05T10:45:43;5.20;99.90
55213;DHT22;41083;52.932;6.674;2022-12-05T10:48:15;5.20;99.90
55213;DHT22;41083;52.932;6.674;2022-12-05T10:50:42;5.20;99.90
55213;DHT22;41083;52.932;6.674;2022-12-05T10:53:15;5.20;99.90
55213;DHT22;41083;52.932;6.674;2022-12-05T10:55:45;5.20;99.90
55213;DHT22;41083;52.932;6.674;2022-12-05T10:58:25;5.20;99.90
55213;DHT22;41083;52.932;6.674;2022-12-05T11:00:57;5.20;99.90
55213;DHT22;41083;52.932;6.674;2022-12-05T11:03:33;5.20;99.90
55213;DHT22;41083;52.932;6.674;2022-12-05T11:06:14;5.20;99.90
55213;DHT22;41083;52.932;6.674;2022-12-05T11:08:40;5.20;99.90
55213;DHT22;41083;52.932;6.674;2022-12-05T11:11:21;5.20;99.90
55213;DHT22;41083;52.932;6.674;2022-12-05T11:13:58;5.20;99.90
55213;DHT22;41083;52.932;6.674;2022-12-05T11:16:31;5.30;99.90
55213;DHT22;41083;52.932;6.674;2022-12-05T11:21:47;5.20;99.90
55213;DHT22;41083;52.932;6.674;2022-12-05T11:24:30;5.20;99.90
55213;DHT22;41083;52.932;6.674;2022-12-05T11:26:57;5.20;99.90
55213;DHT22;41083;52.932;6.674;2022-12-05T11:29:33;5.30;99.90
55213;DHT22;41083;52.932;6.674;2022-12-05T11:31:59;5.30;99.90
55213;DHT22;41083;52.932;6.674;2022-12-05T11:34:36;5.30;99.90
55213;DHT22;41083;52.932;6.674;2022-12-05T11:37:10;5.30;99.90
55213;DHT22;41083;52.932;6.674;2022-12-05T11:39:37;5.30;99.90
55213;DHT22;41083;52.932;6.674;2022-12-05T11:44:52;5.30;99.90
55213;DHT22;41083;52.932;6.674;2022-12-05T11:53:04;5.30;99.90
55213;DHT22;41083;52.932;6.674;2022-12-05T11:55:41;5.30;99.90
55213;DHT22;41083;52.932;6.674;2022-12-05T12:01:33;5.30;99.90
55213;DHT22;41083;52.932;6.674;2022-12-05T12:13:00;5.30;99.90
55213;DHT22;41083;52.932;6.674;2022-12-05T12:23:42;5.30;99.90
55213;DHT22;41083;52.932;6.674;2022-12-05T12:26:15;5.30;99.90
55213;DHT22;41083;52.932;6.674;2022-12-05T12:29:02;5.30;99.90
55213;DHT22;41083;52.932;6.674;2022-12-05T12:34:31;5.30;99.90
55213;DHT22;41083;52.932;6.674;2022-12-05T12:37:05;5.40;99.90
55213;DHT22;41083;52.932;6.674;2022-12-05T12:39:55;5.30;99.90
55213;DHT22;41083;52.932;6.674;2022-12-05T12:42:41;5.40;99.90
55213;DHT22;41083;52.932;6.674;2022-12-05T12:50:25;5.40;99.90
55213;DHT22;41083;52.932;6.674;2022-12-05T13:04:24;5.40;99.90
55213;DHT22;41083;52.932;6.674;2022-12-05T13:07:03;5.40;99.90
55213;DHT22;41083;52.932;6.674;2022-12-05T13:12:09;5.40;99.90
55213;DHT22;41083;52.932;6.674;2022-12-05T13:14:37;5.40;99.90
55213;DHT22;41083;52.932;6.674;2022-12-05T13:17:04;5.40;99.90
55213;DHT22;41083;52.932;6.674;2022-12-05T13:19:56;5.40;99.90
55213;DHT22;41083;52.932;6.674;2022-12-05T13:22:23;5.30;99.90
55213;DHT22;41083;52.932;6.674;2022-12-05T13:24:51;5.40;99.90
55213;DHT22;41083;52.932;6.674;2022-12-05T13:27:23;5.40;99.90
55213;DHT22;41083;52.932;6.674;2022-12-05T13:29:58;5.40;99.90
55213;DHT22;41083;52.932;6.674;2022-12-05T13:32:33;5.40;99.90
55213;DHT22;41083;52.932;6.674;2022-12-05T13:37:33;5.30;99.90
55213;DHT22;41083;52.932;6.674;2022-12-05T13:40:32;5.40;99.90
55213;DHT22;41083;52.932;6.674;2022-12-05T13:43:19;5.40;99.90
55213;DHT22;41083;52.932;6.674;2022-12-05T13:48:24;5.40;99.90
55213;DHT22;41083;52.932;6.674;2022-12-05T13:50:56;5.40;99.90
55213;DHT22;41083;52.932;6.674;2022-12-05T13:53:41;5.40;99.90
55213;DHT22;41083;52.932;6.674;2022-12-05T13:58:57;5.40;99.90
55213;DHT22;41083;52.932;6.674;2022-12-05T14:03:57;5.40;99.90
55213;DHT22;41083;52.932;6.674;2022-12-05T14:09:28;5.40;99.90
55213;DHT22;41083;52.932;6.674;2022-12-05T14:17:25;5.40;99.90
55213;DHT22;41083;52.932;6.674;2022-12-05T14:25:47;5.40;99.90
55213;DHT22;41083;52.932;6.674;2022-12-05T14:31:41;5.40;99.90
55213;DHT22;41083;52.932;6.674;2022-12-05T14:34:23;5.40;99.90
55213;DHT22;41083;52.932;6.674;2022-12-05T14:39:40;5.40;99.90
55213;DHT22;41083;52.932;6.674;2022-12-05T14:42:23;5.40;99.90
55213;DHT22;41083;52.932;6.674;2022-12-05T14:44:52;5.40;99.90
55213;DHT22;41083;52.932;6.674;2022-12-05T14:47:30;5.40;99.90
55213;DHT22;41083;52.932;6.674;2022-12-05T14:49:58;5.40;99.90
55213;DHT22;41083;52.932;6.674;2022-12-05T14:52:28;5.40;99.90
55213;DHT22;41083;52.932;6.674;2022-12-05T14:55:05;5.40;99.90
55213;DHT22;41083;52.932;6.674;2022-12-05T14:57:35;5.40;99.90
55213;DHT22;41083;52.932;6.674;2022-12-05T15:00:05;5.40;99.90
55213;DHT22;41083;52.932;6.674;2022-12-05T15:02:36;5.40;99.90
55213;DHT22;41083;52.932;6.674;2022-12-05T15:05:25;5.40;99.90
55213;DHT22;41083;52.932;6.674;2022-12-05T15:07:51;5.40;99.90
55213;DHT22;41083;52.932;6.674;2022-12-05T15:10:28;5.40;99.90
55213;DHT22;41083;52.932;6.674;2022-12-05T15:12:58;5.40;99.90
55213;DHT22;41083;52.932;6.674;2022-12-05T15:15:35;5.40;99.90
55213;DHT22;41083;52.932;6.674;2022-12-05T15:21:17;5.40;99.90
55213;DHT22;41083;52.932;6.674;2022-12-05T15:23:54;5.40;99.90
55213;DHT22;41083;52.932;6.674;2022-12-05T15:26:36;5.40;99.90
55213;DHT22;41083;52.932;6.674;2022-12-05T15:29:09;5.40;99.90
55213;DHT22;41083;52.932;6.674;2022-12-05T15:31:43;5.40;99.90
55213;DHT22;41083;52.932;6.674;2022-12-05T15:34:28;5.40;99.90
55213;DHT22;41083;52.932;6.674;2022-12-05T15:37:45;5.40;99.90
55213;DHT22;41083;52.932;6.674;2022-12-05T15:42:37;5.40;99.90
55213;DHT22;41083;52.932;6.674;2022-12-05T15:47:46;5.40;99.90
55213;DHT22;41083;52.932;6.674;2022-12-05T15:50:14;5.40;99.90
55213;DHT22;41083;52.932;6.674;2022-12-05T15:55:40;5.40;99.90
55213;DHT22;41083;52.932;6.674;2022-12-05T15:58:26;5.30;99.90
55213;DHT22;41083;52.932;6.674;2022-12-05T16:01:03;5.30;99.90
55213;DHT22;41083;52.932;6.674;2022-12-05T16:06:50;5.30;99.90
55213;DHT22;41083;52.932;6.674;2022-12-05T16:09:19;5.30;99.90
55213;DHT22;41083;52.932;6.674;2022-12-05T16:11:54;5.30;99.90
55213;DHT22;41083;52.932;6.674;2022-12-05T16:14:21;5.30;99.90
55213;DHT22;41083;52.932;6.674;2022-12-05T16:16:48;5.30;99.90
55213;DHT22;41083;52.932;6.674;2022-12-05T16:19:20;5.30;99.90
55213;DHT22;41083;52.932;6.674;2022-12-05T16:21:59;5.30;99.90
55213;DHT22;41083;52.932;6.674;2022-12-05T16:24:30;5.30;99.90
55213;DHT22;41083;52.932;6.674;2022-12-05T16:27:03;5.30;99.90
55213;DHT22;41083;52.932;6.674;2022-12-05T16:29:33;5.30;99.90
55213;DHT22;41083;52.932;6.674;2022-12-05T16:32:05;5.30;99.90
55213;DHT22;41083;52.932;6.674;2022-12-05T16:34:37;5.30;99.90
55213;DHT22;41083;52.932;6.674;2022-12-05T16:37:03;5.30;99.90
55213;DHT22;41083;52.932;6.674;2022-12-05T16:39:30;5.30;99.90
55213;DHT22;41083;52.932;6.674;2022-12-05T16:41:56;5.30;99.90
55213;DHT22;41083;52.932;6.674;2022-12-05T16:47:23;5.30;99.90
55213;DHT22;41083;52.932;6.674;2022-12-05T16:49:49;5.30;99.90
55213;DHT22;41083;52.932;6.674;2022-12-05T16:52:15;5.30;99.90
55213;DHT22;41083;52.932;6.674;2022-12-05T16:54:44;5.30;99.90
55213;DHT22;41083;52.932;6.674;2022-12-05T16:57:12;5.30;99.90
55213;DHT22;41083;52.932;6.674;2022-12-05T16:59:39;5.30;99.90
55213;DHT22;41083;52.932;6.674;2022-12-05T17:02:14;5.30;99.90
55213;DHT22;41083;52.932;6.674;2022-12-05T17:04:40;5.30;99.90
55213;DHT22;41083;52.932;6.674;2022-12-05T17:07:06;5.30;99.90
55213;DHT22;41083;52.932;6.674;2022-12-05T17:09:32;5.30;99.90
55213;DHT22;41083;52.932;6.674;2022-12-05T17:12:05;5.30;99.90
55213;DHT22;41083;52.932;6.674;2022-12-05T17:14:32;5.30;99.90
55213;DHT22;41083;52.932;6.674;2022-12-05T17:16:58;5.30;99.90
55213;DHT22;41083;52.932;6.674;2022-12-05T17:19:23;5.30;99.90
55213;DHT22;41083;52.932;6.674;2022-12-05T17:21:49;5.30;99.90
55213;DHT22;41083;52.932;6.674;2022-12-05T17:24:16;5.30;99.90
55213;DHT22;41083;52.932;6.674;2022-12-05T17:26:43;5.30;99.90
55213;DHT22;41083;52.932;6.674;2022-12-05T17:29:09;5.30;99.90
55213;DHT22;41083;52.932;6.674;2022-12-05T17:31:34;5.30;99.90
55213;DHT22;41083;52.932;6.674;2022-12-05T17:34:00;5.30;99.90
55213;DHT22;41083;52.932;6.674;2022-12-05T17:36:26;5.30;99.90
55213;DHT22;41083;52.932;6.674;2022-12-05T17:38:52;5.30;99.90
55213;DHT22;41083;52.932;6.674;2022-12-05T17:41:21;5.30;99.90
55213;DHT22;41083;52.932;6.674;2022-12-05T17:43:48;5.30;99.90
55213;DHT22;41083;52.932;6.674;2022-12-05T17:46:16;5.30;99.90
55213;DHT22;41083;52.932;6.674;2022-12-05T17:48:43;5.30;99.90
55213;DHT22;41083;52.932;6.674;2022-12-05T17:51:09;5.30;99.90
55213;DHT22;41083;52.932;6.674;2022-12-05T17:53:39;5.30;99.90
55213;DHT22;41083;52.932;6.674;2022-12-05T17:56:05;5.30;99.90
55213;DHT22;41083;52.932;6.674;2022-12-05T17:58:30;5.30;99.90
55213;DHT22;41083;52.932;6.674;2022-12-05T18:00:57;5.30;99.90
55213;DHT22;41083;52.932;6.674;2022-12-05T18:03:22;5.30;99.90
55213;DHT22;41083;52.932;6.674;2022-12-05T18:05:48;5.30;99.90
55213;DHT22;41083;52.932;6.674;2022-12-05T18:08:14;5.30;99.90
55213;DHT22;41083;52.932;6.674;2022-12-05T18:10:42;5.30;99.90
55213;DHT22;41083;52.932;6.674;2022-12-05T18:13:08;5.30;99.90
55213;DHT22;41083;52.932;6.674;2022-12-05T18:15:34;5.30;99.90
55213;DHT22;41083;52.932;6.674;2022-12-05T18:18:00;5.30;99.90
55213;DHT22;41083;52.932;6.674;2022-12-05T18:20:28;5.30;99.90
55213;DHT22;41083;52.932;6.674;2022-12-05T18:22:54;5.30;99.90
55213;DHT22;41083;52.932;6.674;2022-12-05T18:25:19;5.30;99.90
55213;DHT22;41083;52.932;6.674;2022-12-05T18:27:45;5.30;99.90
55213;DHT22;41083;52.932;6.674;2022-12-05T18:30:11;5.30;99.90
55213;DHT22;41083;52.932;6.674;2022-12-05T18:32:36;5.30;99.90
55213;DHT22;41083;52.932;6.674;2022-12-05T18:35:02;5.30;99.90
55213;DHT22;41083;52.932;6.674;2022-12-05T18:37:29;5.30;99.90